createdAt,value
2023-03-02T00:01:11.114Z,102831.75
2023-03-02T00:03:43.175Z,102832.66
2023-03-02T00:06:15.545Z,102823.94
2023-03-02T00:08:47.800Z,102825.09
2023-03-02T00:11:19.995Z,102826.50
2023-03-02T00:13:52.017Z,102824.66
2023-03-02T00:16:24.181Z,102822.50
2023-03-02T00:18:56.420Z,102819.56
2023-03-02T00:21:28.703Z,102821.78
2023-03-02T00:24:01.005Z,102816.53
2023-03-02T00:26:36.975Z,102818.41
2023-03-02T00:29:09.270Z,102815.91
2023-03-02T00:31:41.544Z,102821.97
2023-03-02T00:34:13.790Z,102817.59
2023-03-02T00:36:47.923Z,102807.72
2023-03-02T00:39:20.329Z,102801.59
2023-03-02T00:41:52.408Z,102807.00
2023-03-02T00:44:24.518Z,102809.41
2023-03-02T00:46:56.829Z,102808.34
2023-03-02T00:49:28.986Z,102807.72
2023-03-02T00:52:01.426Z,102804.97
2023-03-02T00:54:33.420Z,102806.66
2023-03-02T00:57:05.382Z,102803.53
2023-03-02T00:59:39.326Z,102807.09
2023-03-02T01:02:11.344Z,102800.25
2023-03-02T01:04:44.809Z,102800.16
2023-03-02T01:07:20.754Z,102795.09
2023-03-02T01:09:52.953Z,102797.41
2023-03-02T01:12:24.901Z,102786.97
2023-03-02T01:14:57.397Z,102784.41
2023-03-02T01:17:29.491Z,102787.16
2023-03-02T01:20:01.875Z,102784.13
2023-03-02T01:22:33.838Z,102779.94
2023-03-02T01:25:06.790Z,102779.16
2023-03-02T01:27:39.518Z,102780.84
2023-03-02T01:30:13.040Z,102782.34
2023-03-02T01:32:45.533Z,102774.44
2023-03-02T01:35:17.780Z,102777.91
2023-03-02T01:37:49.800Z,102771.22
2023-03-02T01:40:21.845Z,102775.31
2023-03-02T01:43:02.522Z,102771.84
2023-03-02T01:45:53.735Z,102773.28
2023-03-02T01:48:54.288Z,102765.63
2023-03-02T01:51:29.110Z,102782.81
2023-03-02T01:54:10.252Z,102779.25
2023-03-02T01:56:42.455Z,102776.84
2023-03-02T01:59:19.062Z,102774.56
2023-03-02T02:01:57.372Z,102776.97
2023-03-02T02:04:32.084Z,102772.16
2023-03-02T02:07:07.283Z,102774.47
2023-03-02T02:09:50.399Z,102773.84
2023-03-02T02:12:23.953Z,102774.00
2023-03-02T02:15:00.826Z,102767.94
2023-03-02T02:17:33.479Z,102767.94
2023-03-02T02:20:24.310Z,102765.59
2023-03-02T02:23:33.059Z,102761.84
2023-03-02T02:26:22.846Z,102764.16
2023-03-02T02:29:08.026Z,102753.50
2023-03-02T02:31:51.094Z,102758.22
2023-03-02T02:34:50.074Z,102759.22
2023-03-02T02:37:58.176Z,102762.97
2023-03-02T02:40:52.184Z,102745.72
2023-03-02T02:43:24.521Z,102757.34
2023-03-02T02:45:58.680Z,102767.66
2023-03-02T02:48:32.427Z,102757.69
2023-03-02T02:51:08.934Z,102756.00
2023-03-02T02:53:48.616Z,102756.19
2023-03-02T02:56:20.740Z,102762.13
2023-03-02T02:58:56.001Z,102763.13
2023-03-02T03:01:28.276Z,102769.16
2023-03-02T03:04:06.349Z,102770.75
2023-03-02T03:06:42.476Z,102765.59
2023-03-02T03:09:14.721Z,102765.41
2023-03-02T03:11:55.527Z,102771.38
2023-03-02T03:14:41.176Z,102766.13
2023-03-02T03:17:14.051Z,102763.72
2023-03-02T03:19:48.106Z,102755.81
2023-03-02T03:22:20.305Z,102767.81
2023-03-02T03:24:52.433Z,102766.59
2023-03-02T03:27:24.716Z,102761.25
2023-03-02T03:29:57.163Z,102758.69
2023-03-02T03:32:29.707Z,102760.06
2023-03-02T03:35:02.733Z,102758.78
2023-03-02T03:37:35.961Z,102752.72
2023-03-02T03:40:09.966Z,102751.28
2023-03-02T03:42:42.025Z,102756.25
2023-03-02T03:45:14.073Z,102755.72
2023-03-02T03:47:46.201Z,102753.75
2023-03-02T03:50:18.265Z,102752.25
2023-03-02T03:52:50.291Z,102751.28
2023-03-02T03:55:22.277Z,102736.09
2023-03-02T03:57:55.173Z,102741.63
2023-03-02T04:00:27.282Z,102742.50
2023-03-02T04:02:59.397Z,102750.94
2023-03-02T04:05:31.826Z,102744.19
2023-03-02T04:08:04.076Z,102752.81
2023-03-02T04:10:36.608Z,102750.19
2023-03-02T04:13:08.901Z,102747.44
2023-03-02T04:15:42.425Z,102762.75
2023-03-02T04:18:14.586Z,102751.38
2023-03-02T04:20:46.586Z,102752.16
2023-03-02T04:23:18.657Z,102755.72
2023-03-02T04:25:50.654Z,102758.88
2023-03-02T04:28:22.978Z,102767.91
2023-03-02T04:30:54.994Z,102760.69
2023-03-02T04:33:27.266Z,102760.69
2023-03-02T04:35:59.295Z,102760.56
2023-03-02T04:38:31.586Z,102755.41
2023-03-02T04:41:03.726Z,102762.34
2023-03-02T04:43:35.739Z,102755.53
2023-03-02T04:46:08.208Z,102755.53
2023-03-02T04:48:40.611Z,102758.88
2023-03-02T04:51:33.698Z,102759.56
2023-03-02T04:54:11.487Z,102756.00
2023-03-02T04:56:43.519Z,102755.03
2023-03-02T04:59:17.012Z,102753.03
2023-03-02T05:01:49.136Z,102748.34
2023-03-02T05:04:21.982Z,102759.47
2023-03-02T05:06:54.390Z,102750.13
2023-03-02T05:09:28.826Z,102752.44
2023-03-02T05:12:01.967Z,102756.00
2023-03-02T05:14:34.219Z,102746.56
2023-03-02T05:17:06.211Z,102756.28
2023-03-02T05:19:38.228Z,102751.28
2023-03-02T05:22:10.249Z,102745.88
2023-03-02T05:24:42.236Z,102750.75
2023-03-02T05:27:14.234Z,102749.25
2023-03-02T05:29:46.274Z,102752.09
2023-03-02T05:32:18.280Z,102750.94
2023-03-02T05:34:50.290Z,102757.78
2023-03-02T05:37:22.273Z,102759.88
2023-03-02T05:39:54.293Z,102760.97
2023-03-02T05:42:26.711Z,102766.41
2023-03-02T05:44:58.743Z,102767.91
2023-03-02T05:47:30.722Z,102768.19
2023-03-02T05:50:03.021Z,102766.81
2023-03-02T05:52:35.473Z,102765.84
2023-03-02T05:55:08.837Z,102769.88
2023-03-02T05:57:41.164Z,102764.03
2023-03-02T06:00:14.713Z,102769.31
2023-03-02T06:02:46.918Z,102765.22
2023-03-02T06:05:22.793Z,102763.13
2023-03-02T06:07:54.926Z,102769.00
2023-03-02T06:10:27.276Z,102770.06
2023-03-02T06:12:59.594Z,102766.91
2023-03-02T06:15:31.613Z,102775.44
2023-03-02T06:18:03.999Z,102765.72
2023-03-02T06:20:36.058Z,102762.66
2023-03-02T06:23:08.174Z,102762.94
2023-03-02T06:25:43.784Z,102767.19
2023-03-02T06:28:19.303Z,102762.31
2023-03-02T06:30:52.523Z,102770.84
2023-03-02T06:33:24.697Z,102776.81
2023-03-02T06:35:57.245Z,102782.28
2023-03-02T06:38:29.548Z,102780.69
2023-03-02T06:41:01.630Z,102778.69
2023-03-02T06:43:33.651Z,102780.56
2023-03-02T06:46:05.954Z,102775.03
2023-03-02T06:48:40.992Z,102779.19
2023-03-02T06:51:13.247Z,102778.31
2023-03-02T06:53:45.290Z,102780.97
2023-03-02T06:56:17.347Z,102781.44
2023-03-02T06:58:49.567Z,102778.78
2023-03-02T07:01:21.605Z,102776.38
2023-03-02T07:03:54.228Z,102780.66
2023-03-02T07:06:26.318Z,102776.66
2023-03-02T07:08:58.352Z,102773.84
2023-03-02T07:11:30.801Z,102770.09
2023-03-02T07:14:03.060Z,102770.69
2023-03-02T07:16:35.203Z,102769.91
2023-03-02T07:19:12.110Z,102760.03
2023-03-02T07:21:44.168Z,102768.22
2023-03-02T07:24:16.217Z,102760.84
2023-03-02T07:26:48.225Z,102762.28
2023-03-02T07:29:20.498Z,102758.16
2023-03-02T07:31:57.235Z,102761.53
2023-03-02T07:34:29.601Z,102754.34
2023-03-02T07:37:01.695Z,102753.75
2023-03-02T07:39:33.795Z,102759.69
2023-03-02T07:42:09.063Z,102761.66
2023-03-02T07:44:41.322Z,102758.56
2023-03-02T07:47:13.636Z,102755.00
2023-03-02T07:49:45.819Z,102752.63
2023-03-02T07:52:18.103Z,102754.03
2023-03-02T07:54:50.603Z,102748.84
2023-03-02T07:57:22.660Z,102755.38
2023-03-02T07:59:54.902Z,102751.38
2023-03-02T08:02:27.121Z,102755.91
2023-03-02T08:04:59.424Z,102757.44
2023-03-02T08:07:31.755Z,102757.88
2023-03-02T08:10:05.007Z,102762.16
2023-03-02T08:12:37.249Z,102753.69
2023-03-02T08:15:10.952Z,102752.44
2023-03-02T08:17:43.102Z,102752.25
2023-03-02T08:20:15.216Z,102754.13
2023-03-02T08:22:47.329Z,102750.03
2023-03-02T08:25:19.516Z,102751.81
2023-03-02T08:27:51.558Z,102751.28
2023-03-02T08:30:23.714Z,102742.97
2023-03-02T08:32:55.759Z,102742.44
2023-03-02T08:35:27.726Z,102745.34
2023-03-02T08:38:02.292Z,102749.97
2023-03-02T08:40:34.974Z,102748.13
2023-03-02T08:43:08.145Z,102740.38
2023-03-02T08:45:40.307Z,102747.78
2023-03-02T08:48:12.409Z,102743.66
2023-03-02T08:50:44.460Z,102747.72
2023-03-02T08:53:16.492Z,102748.44
2023-03-02T08:55:48.829Z,102747.22
2023-03-02T08:58:21.254Z,102748.03
2023-03-02T09:00:53.643Z,102742.84
2023-03-02T09:03:25.676Z,102742.84
2023-03-02T09:05:57.848Z,102740.03
2023-03-02T09:08:29.919Z,102731.47
2023-03-02T09:11:02.034Z,102730.34
2023-03-02T09:13:34.670Z,102726.88
2023-03-02T09:16:08.633Z,102730.53
2023-03-02T09:18:41.228Z,102724.25
2023-03-02T09:21:13.507Z,102728.84
2023-03-02T09:23:45.967Z,102724.41
2023-03-02T09:26:17.979Z,102717.31
2023-03-02T09:28:50.047Z,102717.63
2023-03-02T09:31:22.598Z,102725.00
2023-03-02T09:33:57.116Z,102726.03
2023-03-02T09:36:31.333Z,102719.75
2023-03-02T09:39:08.697Z,102718.13
2023-03-02T09:42:02.279Z,102724.59
2023-03-02T09:45:09.184Z,102720.47
2023-03-02T09:48:21.618Z,102725.97
2023-03-02T09:51:39.294Z,102723.47
2023-03-02T09:54:20.924Z,102716.44
2023-03-02T09:56:58.870Z,102719.16
2023-03-02T09:59:42.839Z,102725.97
2023-03-02T10:02:35.161Z,102724.22
2023-03-02T10:05:15.837Z,102731.50
2023-03-02T10:07:48.820Z,102731.97
2023-03-02T10:10:45.535Z,102732.03
2023-03-02T10:13:22.517Z,102733.59
2023-03-02T10:16:27.845Z,102732.13
2023-03-02T10:19:10.518Z,102739.00
2023-03-02T10:21:47.875Z,102732.94
2023-03-02T10:24:56.678Z,102725.59
2023-03-02T10:27:39.143Z,102731.44
2023-03-02T10:30:28.248Z,102739.53
2023-03-02T10:33:08.824Z,102736.56
2023-03-02T10:35:50.882Z,102731.97
2023-03-02T10:38:28.181Z,102729.38
2023-03-02T10:41:07.141Z,102733.69
2023-03-02T10:43:56.067Z,102731.91
2023-03-02T10:46:44.464Z,102728.06
2023-03-02T10:49:31.676Z,102720.88
2023-03-02T10:52:19.452Z,102721.03
2023-03-02T10:55:10.104Z,102713.09
2023-03-02T10:57:46.768Z,102712.88
2023-03-02T11:00:24.436Z,102714.06
2023-03-02T11:03:04.118Z,102712.44
2023-03-02T11:05:39.380Z,102713.47
2023-03-02T11:08:18.620Z,102703.41
2023-03-02T11:11:03.522Z,102702.09
2023-03-02T11:13:38.542Z,102695.63
2023-03-02T11:16:20.026Z,102693.03
2023-03-02T11:19:00.746Z,102700.13
2023-03-02T11:21:40.316Z,102702.66
2023-03-02T11:24:51.840Z,102704.50
2023-03-02T11:27:36.694Z,102700.88
2023-03-02T11:30:19.569Z,102694.03
2023-03-02T11:33:01.050Z,102695.25
2023-03-02T11:35:54.094Z,102698.22
2023-03-02T11:38:33.255Z,102700.00
2023-03-02T11:41:34.956Z,102689.84
2023-03-02T11:44:27.546Z,102694.63
2023-03-02T11:47:02.037Z,102692.66
2023-03-02T11:49:43.452Z,102686.09
2023-03-02T11:52:26.714Z,102689.50
2023-03-02T11:55:23.782Z,102691.13
2023-03-02T12:00:59.911Z,102695.84
2023-03-02T12:03:31.820Z,102699.25
2023-03-02T12:06:28.769Z,102697.63
2023-03-02T12:09:25.345Z,102685.75
2023-03-02T12:12:25.667Z,102693.31
2023-03-02T12:14:57.591Z,102691.78
2023-03-02T12:17:31.372Z,102692.06
2023-03-02T12:20:09.318Z,102686.69
2023-03-02T12:22:42.313Z,102678.78
2023-03-02T12:25:20.565Z,102676.75
2023-03-02T12:27:55.150Z,102676.88
2023-03-02T12:30:28.818Z,102667.75
2023-03-02T12:33:18.891Z,102673.34
2023-03-02T12:35:57.550Z,102673.06
2023-03-02T12:38:35.072Z,102676.00
2023-03-02T12:41:39.551Z,102684.09
2023-03-02T12:44:31.694Z,102675.84
2023-03-02T12:47:10.850Z,102671.63
2023-03-02T12:49:55.377Z,102670.22
2023-03-02T12:52:33.182Z,102660.94
2023-03-02T12:55:18.976Z,102658.53
2023-03-02T12:58:01.398Z,102654.50
2023-03-02T13:00:35.238Z,102651.88
2023-03-02T13:03:17.274Z,102644.00
2023-03-02T13:05:49.917Z,102648.38
2023-03-02T13:08:32.961Z,102642.34
2023-03-02T13:11:05.658Z,102633.56
2023-03-02T13:13:43.457Z,102635.09
2023-03-02T13:16:27.050Z,102635.03
2023-03-02T13:19:09.967Z,102632.47
2023-03-02T13:21:42.350Z,102632.41
2023-03-02T13:24:52.614Z,102631.38
2023-03-02T13:27:26.329Z,102629.94
2023-03-02T13:30:24.035Z,102627.47
2023-03-02T13:33:05.316Z,102626.13
2023-03-02T13:35:38.393Z,102618.84
2023-03-02T13:38:18.525Z,102617.56
2023-03-02T13:40:53.748Z,102617.53
2023-03-02T13:43:40.294Z,102620.31
2023-03-02T13:46:12.235Z,102624.00
2023-03-02T13:49:09.520Z,102621.47
2023-03-02T13:51:49.248Z,102616.75
2023-03-02T13:54:27.817Z,102620.94
2023-03-02T13:57:02.763Z,102612.00
2023-03-02T13:59:38.014Z,102604.97
2023-03-02T14:02:29.336Z,102595.81
2023-03-02T14:05:01.457Z,102601.19
2023-03-02T14:07:33.634Z,102590.78
2023-03-02T14:10:06.090Z,102587.75
2023-03-02T14:12:41.293Z,102576.94
2023-03-02T14:15:16.766Z,102584.84
2023-03-02T14:17:49.412Z,102576.53
2023-03-02T14:20:21.513Z,102569.69
2023-03-02T14:22:56.796Z,102561.25
2023-03-02T14:25:32.136Z,102566.53
2023-03-02T14:28:04.513Z,102558.38
2023-03-02T14:30:36.658Z,102561.09
2023-03-02T14:33:17.632Z,102559.06
2023-03-02T14:35:52.706Z,102559.41
2023-03-02T14:38:27.884Z,102548.75
2023-03-02T14:41:00.044Z,102542.78
2023-03-02T14:43:32.134Z,102541.59
2023-03-02T14:46:04.418Z,102534.91
2023-03-02T14:48:36.493Z,102535.41
2023-03-02T14:51:22.855Z,102543.53
2023-03-02T14:53:57.978Z,102533.31
2023-03-02T14:56:30.004Z,102532.63
2023-03-02T14:59:02.087Z,102524.88
2023-03-02T15:01:34.558Z,102521.94
2023-03-02T15:04:06.782Z,102534.50
2023-03-02T15:06:42.659Z,102533.97
2023-03-02T15:09:14.990Z,102533.16
2023-03-02T15:11:47.035Z,102538.59
2023-03-02T15:14:19.104Z,102532.63
2023-03-02T15:16:51.233Z,102544.47
2023-03-02T15:19:23.262Z,102538.00
2023-03-02T15:21:58.944Z,102540.94
2023-03-02T15:24:33.146Z,102544.47
2023-03-02T15:27:05.727Z,102539.28
2023-03-02T15:29:37.715Z,102540.09
2023-03-02T15:32:09.778Z,102543.50
2023-03-02T15:34:42.307Z,102534.19
2023-03-02T15:37:15.536Z,102532.81
2023-03-02T15:39:47.593Z,102545.44
2023-03-02T15:42:22.367Z,102542.03
2023-03-02T15:44:54.431Z,102531.66
2023-03-02T15:47:27.227Z,102533.63
2023-03-02T15:49:59.919Z,102531.53
2023-03-02T15:52:32.247Z,102534.88
2023-03-02T15:55:05.402Z,102531.19
2023-03-02T15:57:40.322Z,102541.44
2023-03-02T16:00:13.630Z,102533.19
2023-03-02T16:02:49.905Z,102543.72
2023-03-02T16:05:22.127Z,102540.69
2023-03-02T16:07:54.738Z,102543.19
2023-03-02T16:10:30.173Z,102532.91
2023-03-02T16:13:06.721Z,102540.81
2023-03-02T16:15:42.467Z,102528.53
2023-03-02T16:18:15.275Z,102536.38
2023-03-02T16:20:47.363Z,102535.34
2023-03-02T16:23:19.338Z,102539.09
2023-03-02T16:25:51.454Z,102536.72
2023-03-02T16:28:23.488Z,102536.84
2023-03-02T16:31:13.745Z,102533.38
2023-03-02T16:33:46.596Z,102537.66
2023-03-02T16:36:18.899Z,102542.75
2023-03-02T16:38:50.886Z,102541.75
2023-03-02T16:41:24.263Z,102539.41
2023-03-02T16:43:58.901Z,102534.22
2023-03-02T16:46:39.480Z,102537.78
2023-03-02T16:49:13.477Z,102542.19
2023-03-02T16:51:45.504Z,102534.28
2023-03-02T16:54:17.905Z,102539.47
2023-03-02T16:56:50.161Z,102542.81
2023-03-02T16:59:22.673Z,102544.94
2023-03-02T17:01:55.159Z,102545.25
2023-03-02T17:04:27.472Z,102548.50
2023-03-02T17:07:01.050Z,102555.22
2023-03-02T17:09:41.539Z,102556.53
2023-03-02T17:12:13.498Z,102569.13
2023-03-02T17:14:45.516Z,102558.69
2023-03-02T17:17:17.553Z,102564.09
2023-03-02T17:19:50.049Z,102561.50
2023-03-02T17:22:22.002Z,102569.34
2023-03-02T17:24:53.962Z,102575.25
2023-03-02T17:27:27.354Z,102574.97
2023-03-02T17:29:59.458Z,102570.31
2023-03-02T17:32:31.722Z,102586.34
2023-03-02T17:35:04.555Z,102594.97
2023-03-02T17:37:37.254Z,102591.56
2023-03-02T17:40:13.562Z,102592.72
2023-03-02T17:42:46.315Z,102596.44
2023-03-02T17:45:22.190Z,102602.06
2023-03-02T17:47:56.092Z,102600.06
2023-03-02T17:50:33.856Z,102592.38
2023-03-02T17:53:05.834Z,102598.88
2023-03-02T17:55:39.237Z,102595.53
2023-03-02T17:58:11.327Z,102599.03
2023-03-02T18:00:43.504Z,102596.34
2023-03-02T18:03:15.626Z,102594.66
2023-03-02T18:05:47.647Z,102589.00
2023-03-02T18:08:19.673Z,102595.78
2023-03-02T18:10:51.762Z,102597.72
2023-03-02T18:13:23.774Z,102589.88
2023-03-02T18:15:55.821Z,102596.13
2023-03-02T18:18:27.947Z,102602.56
2023-03-02T18:21:07.265Z,102597.75
2023-03-02T18:23:39.913Z,102604.13
2023-03-02T18:26:14.123Z,102601.28
2023-03-02T18:28:46.386Z,102601.94
2023-03-02T18:31:19.537Z,102606.00
2023-03-02T18:33:51.717Z,102604.06
2023-03-02T18:36:23.741Z,102609.97
2023-03-02T18:38:55.826Z,102612.53
2023-03-02T18:41:27.871Z,102608.50
2023-03-02T18:44:01.806Z,102605.03
2023-03-02T18:46:34.589Z,102602.91
2023-03-02T18:49:06.828Z,102610.66
2023-03-02T18:51:40.038Z,102601.28
2023-03-02T18:54:12.146Z,102599.66
2023-03-02T18:56:44.888Z,102593.84
2023-03-02T18:59:17.946Z,102598.28
2023-03-02T19:01:50.214Z,102594.97
2023-03-02T19:04:26.543Z,102598.59
2023-03-02T19:07:00.832Z,102606.03
2023-03-02T19:09:34.535Z,102601.28
2023-03-02T19:12:06.743Z,102605.47
2023-03-02T19:14:42.782Z,102605.97
2023-03-02T19:17:14.976Z,102605.97
2023-03-02T19:19:47.039Z,102600.13
2023-03-02T19:22:19.152Z,102608.88
2023-03-02T19:24:51.940Z,102607.25
2023-03-02T19:27:24.552Z,102613.00
2023-03-02T19:29:56.526Z,102610.03
2023-03-02T19:32:29.036Z,102614.78
2023-03-02T19:35:02.797Z,102605.00
2023-03-02T19:37:34.955Z,102609.22
2023-03-02T19:40:08.428Z,102617.56
2023-03-02T19:42:41.005Z,102610.75
2023-03-02T19:45:28.644Z,102613.09
2023-03-02T19:48:01.998Z,102616.09
2023-03-02T19:50:34.114Z,102616.19
2023-03-02T19:53:06.787Z,102608.75
2023-03-02T19:55:39.731Z,102609.16
2023-03-02T19:58:17.346Z,102621.19
2023-03-02T20:00:50.006Z,102616.91
2023-03-02T20:03:22.121Z,102619.31
2023-03-02T20:05:59.296Z,102632.16
2023-03-02T20:08:31.306Z,102632.00
2023-03-02T20:11:03.423Z,102626.75
2023-03-02T20:13:36.111Z,102631.13
2023-03-02T20:16:09.424Z,102623.53
2023-03-02T20:18:42.361Z,102621.19
2023-03-02T20:21:14.374Z,102619.72
2023-03-02T20:23:49.299Z,102620.03
2023-03-02T20:26:24.481Z,102625.22
2023-03-02T20:28:59.329Z,102623.75
2023-03-02T20:31:33.627Z,102620.34
2023-03-02T20:34:09.637Z,102625.75
2023-03-02T20:36:41.682Z,102624.78
2023-03-02T20:39:31.805Z,102629.31
2023-03-02T20:42:05.958Z,102630.84
2023-03-02T20:44:38.295Z,102632.16
2023-03-02T20:47:15.009Z,102638.13
2023-03-02T20:49:47.181Z,102637.75
2023-03-02T20:52:19.657Z,102631.19
2023-03-02T20:54:52.236Z,102638.47
2023-03-02T20:57:24.411Z,102641.69
2023-03-02T20:59:56.506Z,102636.53
2023-03-02T21:02:28.799Z,102635.88
2023-03-02T21:05:00.962Z,102630.94
2023-03-02T21:07:35.941Z,102632.56
2023-03-02T21:10:11.743Z,102617.88
2023-03-02T21:12:45.744Z,102623.84
2023-03-02T21:15:26.177Z,102622.00
2023-03-02T21:17:59.433Z,102616.66
2023-03-02T21:20:34.198Z,102620.38
2023-03-02T21:23:06.907Z,102611.09
2023-03-02T21:25:41.203Z,102610.84
2023-03-02T21:28:14.295Z,102615.38
2023-03-02T21:30:47.358Z,102610.50
2023-03-02T21:33:19.421Z,102608.09
2023-03-02T21:35:51.443Z,102617.38
2023-03-02T21:38:27.174Z,102615.84
2023-03-02T21:41:02.200Z,102620.59
2023-03-02T21:43:34.270Z,102618.41
2023-03-02T21:46:06.677Z,102620.03
2023-03-02T21:48:39.077Z,102620.19
2023-03-02T21:51:13.317Z,102612.84
2023-03-02T21:53:53.420Z,102619.88
2023-03-02T21:56:26.505Z,102622.47
2023-03-02T21:58:58.642Z,102618.25
2023-03-02T22:01:33.043Z,102609.78
2023-03-02T22:04:05.518Z,102611.63
2023-03-02T22:06:37.874Z,102614.38
2023-03-02T22:09:11.212Z,102605.84
2023-03-02T22:11:43.745Z,102612.78
2023-03-02T22:14:20.378Z,102613.66
2023-03-02T22:16:52.472Z,102623.28
2023-03-02T22:19:31.341Z,102612.28
2023-03-02T22:22:33.986Z,102614.78
2023-03-02T22:25:18.577Z,102621.00
2023-03-02T22:27:50.973Z,102620.03
2023-03-02T22:30:24.161Z,102618.09
2023-03-02T22:32:56.428Z,102622.31
2023-03-02T22:35:28.520Z,102613.09
2023-03-02T22:38:08.063Z,102622.06
2023-03-02T22:40:41.439Z,102619.25
2023-03-02T22:43:35.102Z,102609.16
2023-03-02T22:46:20.167Z,102617.06
2023-03-02T22:48:53.856Z,102622.22
2023-03-02T22:51:31.081Z,102618.03
2023-03-02T22:54:03.085Z,102612.84
2023-03-02T22:56:43.818Z,102610.19
2023-03-02T22:59:19.879Z,102606.31
2023-03-02T23:02:01.094Z,102606.47
2023-03-02T23:04:38.024Z,102604.72
2023-03-02T23:07:19.389Z,102601.72
2023-03-02T23:09:51.453Z,102601.72
2023-03-02T23:12:27.501Z,102600.25
2023-03-02T23:14:59.984Z,102614.25
2023-03-02T23:17:36.828Z,102604.78
2023-03-02T23:20:14.858Z,102601.41
2023-03-02T23:22:46.906Z,102607.59
2023-03-02T23:25:19.513Z,102600.66
2023-03-02T23:27:52.010Z,102599.78
2023-03-02T23:30:24.020Z,102596.16
2023-03-02T23:32:56.183Z,102598.72
2023-03-02T23:35:28.243Z,102588.31
2023-03-02T23:38:01.552Z,102592.34
2023-03-02T23:40:33.860Z,102595.81
2023-03-02T23:43:05.859Z,102589.53
2023-03-02T23:45:39.942Z,102602.69
2023-03-02T23:48:11.903Z,102603.66
2023-03-02T23:50:45.289Z,102604.53
2023-03-02T23:53:20.138Z,102600.25
2023-03-02T23:55:57.737Z,102594.38
2023-03-02T23:58:29.814Z,102602.34
